General WM J Fox Airfield
KWJF : now visible

Airfield :











YOU CAN JOIN US ON...

 
LOGIN :

Register | Disclaimer

   EN    FR    IT 

 









Legend :    VFR   Marginal VFR   IFR   Intensive IFR   Very Intensive IFR
Visi :
Ceiling :
>= 8 km
>= 3000ft
5 to 8 km
1000 to 3000 ft
1500m to 5 km
500 to 1000 ft
800 to 1500m
200 to 500 ft
< 800m
< 200 ft
Symbols :   Thunderstorms  Fog  Heavy snow  Heavy precipitations  Wind > 20 kt






- Airport Elevation : 2351 ft


KWJF - General WM J Fox

CURRENT METAR :
  • 060456Z AUTO 03004KT 10SM OVC037 09/07 A3019 RMK AO2 SLP230 T00940072

EXPIRED METARs :
  • 060356Z 35005KT 10SM SCT036 08/07 A3019 RMK AO2 SLP232 T00780067
  • 060256Z 03004KT 10SM BKN034 08/07 A3017 RMK AO2 SLP227 T00830072 52011

TAF KWJF
Valid from the 06 at 00:00 until the 07 at 00:00 UTC


052332Z 0600/0624 07004KT P6SM SCT035 OVC200
FM060300 30005KT P6SM SCT035 OVC200
FM062000 10006KT P6SM BKN200



MET'MAP, your aeronautical weather chart ! - Copyright ORBIFLY December 2007 - Disclaimer

ORBIFLY MET'MAP TEAM :

Programming & Development : Alexandra Zaïnal
Concept & original design : Baudouin d'Aumeries
Assistance for programming : Marc-Olivier Méhu
Technical & hardware support : Manuel Goepfert

Contact : metmap@orbifly.com




SOURCES & CREDITS :

   NOAA       Earth
Advisory